EGSC - Cambridge
Distance from station: E 5mi, 14km
Updated: 06/23/2018 9:50am
NOT Current
Clear
Clear
 Wind from NW
Wind: NW 9 mph , 15 km/h
Temperature: 70°F , 21°C
Dew Point: 43°F , 6°C
Humidity: 38%
Barometer: 30.3 inHg , 1026 hPa
Summary: Clear
Visibility: greater than 7 miles , 10 km
2018/06/23 16:50 EGSC 231650Z 32008KT CAVOK 21/06 Q1026